createdAt,value
2023-02-25T00:02:03.878Z,1.14
2023-02-25T00:04:32.923Z,1.14
2023-02-25T00:07:20.924Z,1.13
2023-02-25T00:09:54.271Z,1.14
2023-02-25T00:12:24.277Z,1.14
2023-02-25T00:14:52.893Z,1.13
2023-02-25T00:17:21.031Z,1.12
2023-02-25T00:19:50.742Z,1.10
2023-02-25T00:22:21.478Z,1.09
2023-02-25T00:24:56.529Z,1.09
2023-02-25T00:27:24.900Z,1.08
2023-02-25T00:29:54.607Z,1.04
2023-02-25T00:32:23.384Z,1.01
2023-02-25T00:34:52.389Z,0.99
2023-02-25T00:37:20.618Z,0.96
2023-02-25T00:39:49.766Z,0.95
2023-02-25T00:42:18.981Z,0.93
2023-02-25T00:44:49.472Z,0.90
2023-02-25T00:47:19.687Z,0.89
2023-02-25T00:49:53.137Z,0.87
2023-02-25T00:52:21.692Z,0.86
2023-02-25T00:54:49.906Z,0.87
2023-02-25T00:57:18.247Z,0.86
2023-02-25T00:59:46.445Z,0.84
2023-02-25T01:02:14.851Z,0.82
2023-02-25T01:04:43.697Z,0.80
2023-02-25T01:07:14.473Z,0.79
2023-02-25T01:09:43.115Z,0.77
2023-02-25T01:12:11.889Z,0.75
2023-02-25T01:14:41.118Z,0.75
2023-02-25T01:17:10.009Z,0.76
2023-02-25T01:19:41.959Z,0.76
2023-02-25T01:22:11.497Z,0.76
2023-02-25T01:24:40.142Z,0.76
2023-02-25T01:27:08.686Z,0.76
2023-02-25T01:29:39.338Z,0.77
2023-02-25T01:32:10.005Z,0.76
2023-02-25T01:34:40.338Z,0.75
2023-02-25T01:37:11.986Z,0.74
2023-02-25T01:39:41.713Z,0.74
2023-02-25T01:42:16.829Z,0.73
2023-02-25T01:45:13.570Z,0.74
2023-02-25T01:47:41.818Z,0.75
2023-02-25T01:50:11.170Z,0.76
2023-02-25T01:52:39.733Z,0.76
2023-02-25T01:55:09.624Z,0.77
2023-02-25T01:57:37.831Z,0.78
2023-02-25T02:00:16.749Z,0.79
2023-02-25T02:02:47.798Z,0.82
2023-02-25T02:05:16.071Z,0.84
2023-02-25T02:07:44.232Z,0.85
2023-02-25T02:10:12.522Z,0.85
2023-02-25T02:12:43.055Z,0.87
2023-02-25T02:15:13.468Z,0.88
2023-02-25T02:17:50.886Z,0.89
2023-02-25T02:20:31.651Z,0.90
2023-02-25T02:23:23.887Z,0.91
2023-02-25T02:25:55.576Z,0.93
2023-02-25T02:28:48.800Z,0.95
2023-02-25T02:31:23.484Z,0.97
2023-02-25T02:34:11.166Z,0.98
2023-02-25T02:36:47.269Z,0.98
2023-02-25T02:39:21.636Z,0.98
2023-02-25T02:42:18.693Z,1.00
2023-02-25T02:45:05.453Z,1.02
2023-02-25T02:47:46.780Z,1.03
2023-02-25T02:50:43.335Z,1.07
2023-02-25T02:53:14.729Z,1.09
2023-02-25T02:55:49.496Z,1.12
2023-02-25T02:58:35.405Z,1.14
2023-02-25T03:01:13.677Z,1.17
2023-02-25T03:04:04.368Z,1.20
2023-02-25T03:06:44.150Z,1.23
2023-02-25T03:09:15.188Z,1.25
2023-02-25T03:11:43.698Z,1.28
2023-02-25T03:14:13.926Z,1.30
2023-02-25T03:16:53.132Z,1.32
2023-02-25T03:19:32.572Z,1.34
2023-02-25T03:22:13.046Z,1.37
2023-02-25T03:24:59.740Z,1.40
2023-02-25T03:27:35.498Z,1.44
2023-02-25T03:30:33.250Z,1.46
2023-02-25T03:33:11.000Z,1.50
2023-02-25T03:35:40.385Z,1.51
2023-02-25T03:38:11.966Z,1.52
2023-02-25T03:40:40.323Z,1.53
2023-02-25T03:43:15.034Z,1.54
2023-02-25T03:45:44.355Z,1.55
2023-02-25T03:48:13.669Z,1.56
2023-02-25T03:50:47.573Z,1.59
2023-02-25T03:53:35.900Z,1.61
2023-02-25T03:56:19.323Z,1.63
2023-02-25T03:58:48.008Z,1.65
2023-02-25T04:01:19.830Z,1.66
2023-02-25T04:03:48.107Z,1.67
2023-02-25T04:06:23.152Z,1.68
2023-02-25T04:08:52.179Z,1.70
2023-02-25T04:11:20.578Z,1.71
2023-02-25T04:13:49.538Z,1.73
2023-02-25T04:16:18.811Z,1.74
2023-02-25T04:18:49.082Z,1.74
2023-02-25T04:21:31.579Z,1.74
2023-02-25T04:24:00.186Z,1.75
2023-02-25T04:26:28.442Z,1.75
2023-02-25T04:28:57.540Z,1.75
2023-02-25T04:31:25.930Z,1.77
2023-02-25T04:33:54.703Z,1.77
2023-02-25T04:36:31.075Z,1.78
2023-02-25T04:39:01.769Z,1.80
2023-02-25T04:41:31.619Z,1.81
2023-02-25T04:44:04.116Z,1.81
2023-02-25T04:46:37.435Z,1.83
2023-02-25T04:49:06.611Z,1.85
2023-02-25T04:51:35.994Z,1.87
2023-02-25T04:54:04.394Z,1.87
2023-02-25T04:56:32.647Z,1.88
2023-02-25T04:59:00.757Z,1.87
2023-02-25T05:01:29.029Z,1.87
2023-02-25T05:03:57.481Z,1.87
2023-02-25T05:06:26.072Z,1.88
2023-02-25T05:09:00.101Z,1.90
2023-02-25T05:11:30.001Z,1.90
2023-02-25T05:13:58.713Z,1.91
2023-02-25T05:16:27.474Z,1.91
2023-02-25T05:18:56.030Z,1.93
2023-02-25T05:21:26.280Z,1.94
2023-02-25T05:23:54.650Z,1.95
2023-02-25T05:26:24.195Z,1.96
2023-02-25T05:28:55.386Z,1.96
2023-02-25T05:31:25.013Z,1.97
2023-02-25T05:33:53.552Z,1.98
2023-02-25T05:36:23.151Z,1.99
2023-02-25T05:39:02.880Z,1.99
2023-02-25T05:41:33.282Z,1.99
2023-02-25T05:44:01.462Z,2.01
2023-02-25T05:46:30.279Z,2.01
2023-02-25T05:48:58.322Z,2.02
2023-02-25T05:51:26.593Z,2.03
2023-02-25T05:53:54.779Z,2.02
2023-02-25T05:56:25.801Z,2.02
2023-02-25T05:58:55.110Z,2.04
2023-02-25T06:01:27.818Z,2.06
2023-02-25T06:03:58.892Z,2.06
2023-02-25T06:06:28.950Z,2.07
2023-02-25T06:08:57.658Z,2.08
2023-02-25T06:11:27.879Z,2.09
2023-02-25T06:13:56.652Z,2.11
2023-02-25T06:16:32.666Z,2.13
2023-02-25T06:19:02.642Z,2.14
2023-02-25T06:21:34.278Z,2.16
2023-02-25T06:24:05.627Z,2.18
2023-02-25T06:26:41.901Z,2.21
2023-02-25T06:29:10.478Z,2.25
2023-02-25T06:31:40.117Z,2.29
2023-02-25T06:34:08.683Z,2.33
2023-02-25T06:36:36.941Z,2.35
2023-02-25T06:39:05.256Z,2.38
2023-02-25T06:41:33.506Z,2.41
2023-02-25T06:44:01.937Z,2.44
2023-02-25T06:46:30.645Z,2.47
2023-02-25T06:48:59.023Z,2.50
2023-02-25T06:51:27.739Z,2.51
2023-02-25T06:53:56.115Z,2.49
2023-02-25T06:56:24.806Z,2.49
2023-02-25T06:58:53.552Z,2.49
2023-02-25T07:01:21.866Z,2.51
2023-02-25T07:03:50.962Z,2.53
2023-02-25T07:06:19.449Z,2.54
2023-02-25T07:08:47.843Z,2.55
2023-02-25T07:11:18.350Z,2.56
2023-02-25T07:13:50.015Z,2.56
2023-02-25T07:16:18.330Z,2.56
2023-02-25T07:18:51.178Z,2.57
2023-02-25T07:21:20.390Z,2.58
2023-02-25T07:23:48.874Z,2.59
2023-02-25T07:26:17.933Z,2.60
2023-02-25T07:28:48.586Z,2.63
2023-02-25T07:31:18.809Z,2.65
2023-02-25T07:33:51.581Z,2.68
2023-02-25T07:36:20.375Z,2.72
2023-02-25T07:38:51.417Z,2.75
2023-02-25T07:41:19.663Z,2.75
2023-02-25T07:43:48.192Z,2.75
2023-02-25T07:46:19.358Z,2.74
2023-02-25T07:48:48.730Z,2.77
2023-02-25T07:51:18.767Z,2.78
2023-02-25T07:53:47.556Z,2.78
2023-02-25T07:56:25.045Z,2.80
2023-02-25T07:58:53.532Z,2.82
2023-02-25T08:01:27.110Z,2.82
2023-02-25T08:03:57.989Z,2.84
2023-02-25T08:06:27.077Z,2.86
2023-02-25T08:08:55.941Z,2.87
2023-02-25T08:11:25.165Z,2.91
2023-02-25T08:13:54.293Z,2.93
2023-02-25T08:16:23.529Z,2.95
2023-02-25T08:18:53.794Z,2.97
2023-02-25T08:21:23.781Z,3.01
2023-02-25T08:23:53.380Z,3.02
2023-02-25T08:26:22.702Z,3.00
2023-02-25T08:28:51.072Z,3.00
2023-02-25T08:31:20.342Z,3.01
2023-02-25T08:33:49.844Z,3.02
2023-02-25T08:36:26.861Z,3.04
2023-02-25T08:38:55.541Z,3.05
2023-02-25T08:41:24.211Z,3.07
2023-02-25T08:43:54.950Z,3.09
2023-02-25T08:46:27.885Z,3.10
2023-02-25T08:48:56.253Z,3.13
2023-02-25T08:51:26.624Z,3.18
2023-02-25T08:53:55.375Z,3.20
2023-02-25T08:56:23.928Z,3.21
2023-02-25T08:58:52.611Z,3.21
2023-02-25T09:01:21.173Z,3.20
2023-02-25T09:03:52.710Z,3.22
2023-02-25T09:06:25.612Z,3.23
2023-02-25T09:08:58.045Z,3.26
2023-02-25T09:11:27.054Z,3.27
2023-02-25T09:13:55.486Z,3.27
2023-02-25T09:16:24.846Z,3.26
2023-02-25T09:18:54.277Z,3.25
2023-02-25T09:21:24.380Z,3.27
2023-02-25T09:23:54.323Z,3.31
2023-02-25T09:26:22.906Z,3.35
2023-02-25T09:28:51.454Z,3.37
2023-02-25T09:31:19.823Z,3.40
2023-02-25T09:33:53.054Z,3.42
2023-02-25T09:36:21.463Z,3.43
2023-02-25T09:38:49.836Z,3.45
2023-02-25T09:41:44.309Z,3.46
2023-02-25T09:44:19.496Z,3.48
2023-02-25T09:47:02.058Z,3.49
2023-02-25T09:49:56.862Z,3.53
2023-02-25T09:52:34.059Z,3.55
2023-02-25T09:55:09.105Z,3.58
2023-02-25T09:57:41.608Z,3.62
2023-02-25T10:00:18.654Z,3.66
2023-02-25T10:03:07.308Z,3.72
2023-02-25T10:05:45.249Z,3.75
2023-02-25T10:08:21.025Z,3.79
2023-02-25T10:11:14.010Z,3.80
2023-02-25T10:13:48.879Z,3.82
2023-02-25T10:16:35.878Z,3.83
2023-02-25T10:19:34.775Z,3.84
2023-02-25T10:22:25.455Z,3.84
2023-02-25T10:24:58.205Z,3.85
2023-02-25T10:27:34.057Z,3.86
2023-02-25T10:30:11.348Z,3.88
2023-02-25T10:32:41.647Z,3.90
2023-02-25T10:35:29.761Z,3.91
2023-02-25T10:37:58.265Z,3.91
2023-02-25T10:40:30.297Z,3.95
2023-02-25T10:43:01.442Z,3.97
2023-02-25T10:45:31.909Z,3.97
2023-02-25T10:48:07.272Z,3.99
2023-02-25T10:50:45.310Z,4.04
2023-02-25T10:53:16.877Z,4.05
2023-02-25T10:55:52.531Z,4.09
2023-02-25T10:58:23.404Z,4.12
2023-02-25T11:01:15.682Z,4.14
2023-02-25T11:03:46.919Z,4.17
2023-02-25T11:06:32.442Z,4.21
2023-02-25T11:09:02.108Z,4.22
2023-02-25T11:11:32.806Z,4.23
2023-02-25T11:14:07.956Z,4.24
2023-02-25T11:16:38.511Z,4.27
2023-02-25T11:19:26.297Z,4.32
2023-02-25T11:21:54.360Z,4.34
2023-02-25T11:24:33.588Z,4.35
2023-02-25T11:27:02.477Z,4.34
2023-02-25T11:29:36.321Z,4.35
2023-02-25T11:32:19.134Z,4.37
2023-02-25T11:34:55.481Z,4.37
2023-02-25T11:37:43.337Z,4.40
2023-02-25T11:40:30.119Z,4.43
2023-02-25T11:45:55.035Z,4.45
2023-02-25T11:48:47.585Z,4.45
2023-02-25T11:51:47.295Z,4.46
2023-02-25T11:54:26.729Z,4.48
2023-02-25T11:57:08.857Z,4.49
2023-02-25T12:00:03.017Z,4.52
2023-02-25T12:02:58.785Z,4.57
2023-02-25T12:05:53.176Z,4.62
2023-02-25T12:08:40.377Z,4.64
2023-02-25T12:11:27.459Z,4.67
2023-02-25T12:14:14.865Z,4.71
2023-02-25T12:17:08.490Z,4.74
2023-02-25T12:19:49.050Z,4.75
2023-02-25T12:23:02.366Z,4.77
2023-02-25T12:25:38.186Z,4.79
2023-02-25T12:28:15.394Z,4.80
2023-02-25T12:31:02.580Z,4.81
2023-02-25T12:34:01.969Z,4.84
2023-02-25T12:37:01.659Z,4.86
2023-02-25T12:39:58.685Z,4.87
2023-02-25T12:42:34.643Z,4.87
2023-02-25T12:45:25.370Z,4.89
2023-02-25T12:48:26.130Z,4.89
2023-02-25T12:51:16.688Z,4.89
2023-02-25T12:53:51.518Z,4.88
2023-02-25T12:56:25.656Z,4.86
2023-02-25T12:59:10.821Z,4.84
2023-02-25T13:01:46.261Z,4.84
2023-02-25T13:04:27.365Z,4.84
2023-02-25T13:07:03.211Z,4.84
2023-02-25T13:09:53.942Z,4.83
2023-02-25T13:12:40.905Z,4.83
2023-02-25T13:15:22.633Z,4.84
2023-02-25T13:17:50.692Z,4.85
2023-02-25T13:21:04.088Z,4.87
2023-02-25T13:23:54.649Z,4.88
2023-02-25T13:26:44.517Z,4.89
2023-02-25T13:29:20.623Z,4.92
2023-02-25T13:31:54.245Z,4.93
2023-02-25T13:34:43.387Z,4.94
2023-02-25T13:37:30.341Z,4.94
2023-02-25T13:40:20.566Z,4.96
2023-02-25T13:43:08.814Z,4.98
2023-02-25T13:45:45.587Z,4.99
2023-02-25T13:48:35.360Z,5.02
2023-02-25T13:51:28.295Z,5.04
2023-02-25T13:54:08.035Z,5.06
2023-02-25T13:56:46.845Z,5.09
2023-02-25T13:59:25.815Z,5.11
2023-02-25T14:02:14.297Z,5.13
2023-02-25T14:05:03.685Z,5.16
2023-02-25T14:07:50.200Z,5.18
2023-02-25T14:10:45.299Z,5.20
2023-02-25T14:13:59.826Z,5.22
2023-02-25T14:17:05.852Z,5.24
2023-02-25T14:20:02.477Z,5.28
2023-02-25T14:22:59.478Z,5.30
2023-02-25T14:25:32.572Z,5.32
2023-02-25T14:28:19.686Z,5.34
2023-02-25T14:31:19.184Z,5.36
2023-02-25T14:34:37.199Z,5.39
2023-02-25T14:37:20.666Z,5.42
2023-02-25T14:40:18.287Z,5.44
2023-02-25T14:42:55.612Z,5.46
2023-02-25T14:45:26.290Z,5.49
2023-02-25T14:48:01.503Z,5.51
2023-02-25T14:50:57.087Z,5.52
2023-02-25T14:53:28.655Z,5.52
2023-02-25T14:56:16.531Z,5.54
2023-02-25T14:58:51.225Z,5.54
2023-02-25T15:02:03.859Z,5.56
2023-02-25T15:04:44.688Z,5.59
2023-02-25T15:07:43.672Z,5.59
2023-02-25T15:10:30.267Z,5.61
2023-02-25T15:13:26.217Z,5.61
2023-02-25T15:16:13.551Z,5.62
2023-02-25T15:18:47.163Z,5.62
2023-02-25T15:21:39.556Z,5.64
2023-02-25T15:24:31.427Z,5.65
2023-02-25T15:26:59.680Z,5.65
2023-02-25T15:29:29.692Z,5.65
2023-02-25T15:32:23.029Z,5.66
2023-02-25T15:35:01.110Z,5.66
2023-02-25T15:37:37.585Z,5.66
2023-02-25T15:40:14.784Z,5.65
2023-02-25T15:43:14.565Z,5.66
2023-02-25T15:45:51.138Z,5.66
2023-02-25T15:48:29.624Z,5.66
2023-02-25T15:50:57.966Z,5.66
2023-02-25T15:53:26.600Z,5.65
2023-02-25T15:56:03.940Z,5.64
2023-02-25T15:58:32.219Z,5.60
2023-02-25T16:01:06.630Z,5.56
2023-02-25T16:03:35.082Z,5.51
2023-02-25T16:06:39.106Z,5.48
2023-02-25T16:09:12.395Z,5.44
2023-02-25T16:11:51.446Z,5.41
2023-02-25T16:14:34.288Z,5.37
2023-02-25T16:17:21.070Z,5.33
2023-02-25T16:19:53.719Z,5.30
2023-02-25T16:22:23.702Z,5.28
2023-02-25T16:24:53.521Z,5.24
2023-02-25T16:27:37.561Z,5.21
2023-02-25T16:30:13.941Z,5.19
2023-02-25T16:33:11.981Z,5.16
2023-02-25T16:35:57.620Z,5.13
2023-02-25T16:38:37.316Z,5.09
2023-02-25T16:41:06.248Z,5.07
2023-02-25T16:43:37.262Z,5.05
2023-02-25T16:46:12.908Z,5.02
2023-02-25T16:48:55.351Z,4.99
2023-02-25T16:51:32.764Z,4.95
2023-02-25T16:54:05.588Z,4.93
2023-02-25T16:56:34.608Z,4.91
2023-02-25T16:59:05.854Z,4.89
2023-02-25T17:01:34.364Z,4.88
2023-02-25T17:04:21.508Z,4.86
2023-02-25T17:07:13.185Z,4.83
2023-02-25T17:09:45.741Z,4.83
2023-02-25T17:12:28.761Z,4.82
2023-02-25T17:15:00.959Z,4.82
2023-02-25T17:17:35.251Z,4.82
2023-02-25T17:20:06.099Z,4.83
2023-02-25T17:22:37.817Z,4.83
2023-02-25T17:25:12.159Z,4.85
2023-02-25T17:27:40.526Z,4.88
2023-02-25T17:30:42.744Z,4.93
2023-02-25T17:33:21.450Z,4.97
2023-02-25T17:35:51.256Z,5.03
2023-02-25T17:38:22.084Z,5.09
2023-02-25T17:40:51.963Z,5.13
2023-02-25T17:43:36.286Z,5.19
2023-02-25T17:46:27.373Z,5.25
2023-02-25T17:49:03.211Z,5.33
2023-02-25T17:51:33.627Z,5.38
2023-02-25T17:54:07.579Z,5.44
2023-02-25T17:56:35.782Z,5.48
2023-02-25T17:59:05.414Z,5.53
2023-02-25T18:01:56.374Z,5.60
2023-02-25T18:04:27.299Z,5.67
2023-02-25T18:07:00.153Z,5.72
2023-02-25T18:09:36.973Z,5.76
2023-02-25T18:12:07.235Z,5.80
2023-02-25T18:14:40.113Z,5.85
2023-02-25T18:17:14.292Z,5.90
2023-02-25T18:19:46.802Z,5.94
2023-02-25T18:22:45.802Z,5.96
2023-02-25T18:25:36.082Z,6.01
2023-02-25T18:28:06.163Z,6.05
2023-02-25T18:30:37.600Z,6.07
2023-02-25T18:33:06.631Z,6.09
2023-02-25T18:35:34.799Z,6.10
2023-02-25T18:38:07.365Z,6.11
2023-02-25T18:40:39.438Z,6.13
2023-02-25T18:43:10.541Z,6.16
2023-02-25T18:45:39.476Z,6.19
2023-02-25T18:48:07.585Z,6.23
2023-02-25T18:50:35.720Z,6.27
2023-02-25T18:53:03.946Z,6.32
2023-02-25T18:55:32.937Z,6.37
2023-02-25T18:58:02.264Z,6.42
2023-02-25T19:00:31.434Z,6.47
2023-02-25T19:03:03.480Z,6.50
2023-02-25T19:05:32.094Z,6.53
2023-02-25T19:08:13.254Z,6.60
2023-02-25T19:10:45.481Z,6.67
2023-02-25T19:13:35.473Z,6.74
2023-02-25T19:16:06.013Z,6.79
2023-02-25T19:18:37.733Z,6.82
2023-02-25T19:21:15.470Z,6.85
2023-02-25T19:23:51.218Z,6.89
2023-02-25T19:26:21.622Z,6.91
2023-02-25T19:28:52.721Z,6.94
2023-02-25T19:31:23.560Z,6.95
2023-02-25T19:33:53.459Z,6.98
2023-02-25T19:36:24.918Z,7.02
2023-02-25T19:38:56.538Z,7.04
2023-02-25T19:41:27.052Z,7.03
2023-02-25T19:44:02.140Z,7.03
2023-02-25T19:46:34.559Z,7.03
2023-02-25T19:49:05.568Z,7.03
2023-02-25T19:51:35.403Z,7.04
2023-02-25T19:54:07.982Z,7.05
2023-02-25T19:56:39.581Z,7.07
2023-02-25T19:59:11.877Z,7.08
2023-02-25T20:01:44.046Z,7.10
2023-02-25T20:04:15.606Z,7.12
2023-02-25T20:06:48.093Z,7.13
2023-02-25T20:16:35.574Z,7.16
2023-02-25T20:19:04.526Z,7.13
2023-02-25T20:21:33.008Z,7.13
2023-02-25T20:24:01.381Z,7.12
2023-02-25T20:26:30.712Z,7.11
2023-02-25T20:28:59.168Z,7.11
2023-02-25T20:31:28.006Z,7.11
2023-02-25T20:33:58.694Z,7.10
2023-02-25T20:36:31.716Z,7.10
2023-02-25T20:39:21.913Z,7.11
2023-02-25T20:41:51.046Z,7.11
2023-02-25T20:44:19.420Z,7.12
2023-02-25T20:46:49.907Z,7.12
2023-02-25T20:49:19.381Z,7.11
2023-02-25T20:51:48.335Z,7.12
2023-02-25T20:54:18.919Z,7.11
2023-02-25T20:56:51.074Z,7.11
2023-02-25T20:59:19.570Z,7.09
2023-02-25T21:01:48.030Z,7.08
2023-02-25T21:04:16.384Z,7.07
2023-02-25T21:06:45.514Z,7.06
2023-02-25T21:09:17.119Z,7.05
2023-02-25T21:11:45.540Z,7.04
2023-02-25T21:14:14.028Z,7.03
2023-02-25T21:16:42.527Z,7.02
2023-02-25T21:19:11.501Z,7.01
2023-02-25T21:21:40.187Z,7.00
2023-02-25T21:24:10.427Z,6.99
2023-02-25T21:26:39.494Z,6.98
2023-02-25T21:29:08.200Z,6.97
2023-02-25T21:31:37.658Z,6.95
2023-02-25T21:34:06.796Z,6.95
2023-02-25T21:36:36.046Z,6.95
2023-02-25T21:39:05.090Z,6.96
2023-02-25T21:41:33.335Z,6.95
2023-02-25T21:44:04.405Z,6.95
2023-02-25T21:46:32.781Z,6.94
2023-02-25T21:49:01.106Z,6.93
2023-02-25T21:51:29.780Z,6.92
2023-02-25T21:53:59.443Z,6.92
2023-02-25T21:56:28.510Z,6.92
2023-02-25T21:58:59.065Z,6.91
2023-02-25T22:01:32.816Z,6.90
2023-02-25T22:04:01.346Z,6.89
2023-02-25T22:06:29.881Z,6.88
2023-02-25T22:08:58.248Z,6.87
2023-02-25T22:11:29.321Z,6.87
2023-02-25T22:14:01.386Z,6.87
2023-02-25T22:16:31.303Z,6.89
2023-02-25T22:19:00.629Z,6.91
2023-02-25T22:21:31.307Z,6.92
2023-02-25T22:24:01.673Z,6.95
2023-02-25T22:26:32.016Z,6.98
2023-02-25T22:29:05.047Z,7.00
2023-02-25T22:31:34.416Z,7.01
2023-02-25T22:34:02.651Z,7.01
2023-02-25T22:36:30.924Z,7.01
2023-02-25T22:39:00.213Z,7.00
2023-02-25T22:41:29.400Z,6.98
2023-02-25T22:43:58.329Z,6.97
2023-02-25T22:46:28.702Z,6.97
2023-02-25T22:48:57.393Z,6.96
2023-02-25T22:51:30.947Z,6.95
2023-02-25T22:53:59.904Z,6.95
2023-02-25T22:56:28.307Z,6.95
2023-02-25T22:58:56.573Z,6.94
2023-02-25T23:01:25.227Z,6.93
2023-02-25T23:03:54.954Z,6.91
2023-02-25T23:06:42.196Z,6.88
2023-02-25T23:09:13.592Z,6.85
2023-02-25T23:11:42.839Z,6.80
2023-02-25T23:14:11.638Z,6.78
2023-02-25T23:16:41.724Z,6.76
2023-02-25T23:19:17.318Z,6.76
2023-02-25T23:21:46.483Z,6.76
2023-02-25T23:24:16.522Z,6.75
2023-02-25T23:26:45.811Z,6.75
2023-02-25T23:29:14.631Z,6.74
2023-02-25T23:31:45.810Z,6.74
2023-02-25T23:34:18.001Z,6.73
2023-02-25T23:36:46.285Z,6.73
2023-02-25T23:39:15.010Z,6.71
2023-02-25T23:41:43.313Z,6.71
2023-02-25T23:44:13.500Z,6.70
2023-02-25T23:46:43.374Z,6.71
2023-02-25T23:49:12.550Z,6.69
2023-02-25T23:51:43.582Z,6.70
2023-02-25T23:54:13.735Z,6.68
2023-02-25T23:56:41.804Z,6.67
2023-02-25T23:59:11.560Z,6.66
